Parçalı bulutlu
Birkaç düşük bulutlar ile açık
Birkaç düşük bulutlar ile açık
Birkaç düşük bulutlar ile açık
Parçalı bulutlu
Çoğunlukla bulutlu
Bulutlu
(°C)
(°C)
-4°
-4°
-4°
-5°
-4°
-4°
-4°
B
B
B
BGB
BGB
GB
BGB
(km/saat)
7-15
7-13
7-14
9-16
10-18
13-21
12-19
(mm)
0
0
0
0
0
0
0
(%)
0
0
0
0
0
0
0

Güneşin açısı

/ -6.5°
sun-icon
UV 1
08:08
17:01
İlk çeyrek ay (89°)
10:56
00:43

Bordenau (ETNW) için METAR

Zaman Koşullar Sıcaklık/
Çiy noktası
Rüzgar Görünürlük Hava Bulutlar Basınç Değiştir Ham
MVFR 1°C / -3°C 300º 4kt >10km - Broken Clouds 2500ft 1029 - ETNW 281620Z 30004KT 9999 BKN025 01/M03 Q1029 BLU
VFR 1°C / -3°C 310º 6kt >10km - Few Clouds 2400ft 1029 - ETNW 281520Z 31006KT 9999 FEW024 01/M03 Q1029 BLU+
VFR 2°C / -4°C 240º 5kt >10km - Few Clouds 2200ft
Scattered Clouds 14000ft
1028 - ETNW 281420Z 24005KT 9999 FEW022 SCT140 02/M04 Q1028 BLU+
VFR 1°C / -4°C 270º 4kt >10km - Few Clouds 2200ft
Scattered Clouds 15000ft
1029 - ETNW 281320Z 27004KT 9999 FEW022 SCT150 01/M04 Q1029 BLU+
VFR 1°C / -5°C 270º 3kt >10km - Few Clouds 2200ft
Scattered Clouds 15000ft
1028 - ETNW 281220Z 27003KT 9999 FEW022 SCT150 01/M05 Q1028 BLU+
VFR 0°C / -5°C 320º 4kt >10km - Scattered Clouds 2200ft
Scattered Clouds 15000ft
1029 - ETNW 281150Z 32004KT 9999 SCT022 SCT150 00/M05 Q1029 BLU+
MVFR 1°C / -5°C 320º 6kt >10km - Broken Clouds 2200ft
Scattered Clouds 10000ft
1030 - ETNW 281120Z 32006KT 9999 BKN022 SCT100 01/M05 Q1030 WHT
MVFR 1°C / -4°C 300º 3kt >10km - Broken Clouds 2200ft 1030 - ETNW 281020Z 30003KT 9999 BKN022 01/M04 Q1030 WHT
MVFR 0°C / -5°C 320º 6kt >10km - Broken Clouds 2300ft 1030 - ETNW 280920Z 32006KT 9999 BKN023 00/M05 Q1030 WHT
MVFR 0°C / -4°C 360º 2kt >10km - Broken Clouds 2300ft 1029 - ETNW 280820Z 36002KT 9999 BKN023 00/M04 Q1029 WHT
MVFR 0°C / -4°C 310º 2kt >10km - Broken Clouds 2300ft 1029 - ETNW 280720Z 31002KT 9999 BKN023 M00/M04 Q1029 WHT
MVFR 0°C / -4°C 330º 2kt >10km - Broken Clouds 2400ft 1028 - ETNW 280620Z 33002KT 9999 BKN024 M00/M04 Q1028 WHT
MVFR 0°C / -4°C 10º 3kt >10km - Broken Clouds 2400ft 1028 - ETNW 280520Z 01003KT 9999 BKN024 00/M04 Q1028 WHT
MVFR 0°C / -3°C 360º 2kt >10km - Broken Clouds 2500ft 1028 - ETNW 280420Z 36002KT 9999 BKN025 00/M03 Q1028 BLU
MVFR 1°C / -3°C 80º 2kt >10km - Broken Clouds 2500ft 1028 - ETNW 280320Z 08002KT 9999 BKN025 01/M03 Q1028 BLU
MVFR 1°C / -4°C 40º 4kt >10km - Broken Clouds 2500ft 1028 - ETNW 280220Z 04004KT 9999 BKN025 01/M04 Q1028 BLU
MVFR 1°C / -3°C variable 3kt >10km - Broken Clouds 2400ft 1028 - ETNW 280120Z VRB03KT 9999 BKN024 01/M03 Q1028 WHT
MVFR 1°C / -3°C 70º 4kt >10km - Broken Clouds 2300ft 1028 - ETNW 280020Z 07004KT 9999 BKN023 01/M03 Q1028 WHT
MVFR 1°C / -3°C 50º 3kt >10km - Broken Clouds 2300ft 1028 - ETNW 272320Z 05003KT 9999 BKN023 01/M03 Q1028 WHT
MVFR 1°C / -4°C 70º 6kt >10km - Broken Clouds 2400ft 1028 - ETNW 272220Z 07006KT 9999 BKN024 01/M04 Q1028 WHT
MVFR 2°C / -3°C 60º 6kt >10km - Broken Clouds 2500ft 1028 - ETNW 272120Z 06006KT 9999 BKN025 02/M03 Q1028 BLU
MVFR 2°C / -2°C 50º 5kt >10km - Broken Clouds 2300ft 1028 - ETNW 271920Z 05005KT 9999 BKN023 02/M02 Q1028 WHT
MVFR 2°C / -1°C 60º 5kt >10km - Broken Clouds 2000ft 1028 - ETNW 271820Z 06005KT 9999 BKN020 02/M01 Q1028 WHT
MVFR 2°C / -1°C 80º 5kt >10km - Broken Clouds 2000ft 1028 - ETNW 271800Z 08005KT 9999 BKN020 02/M01 Q1028 WHT FCST CNL

MVFR

1°C / -3°C

[Daha fazla]
Rüzgar 300º 4kt
Görünürlük >10km
Hava -
Bulutlar Broken Clouds 2500ft
Basınç 1029
Değiştir -
Ham ETNW 281620Z 30004KT 9999 BKN025 01/M03 Q1029 BLU

VFR

1°C / -3°C

[Daha fazla]
Rüzgar 310º 6kt
Görünürlük >10km
Hava -
Bulutlar Few Clouds 2400ft
Basınç 1029
Değiştir -
Ham ETNW 281520Z 31006KT 9999 FEW024 01/M03 Q1029 BLU+

VFR

2°C / -4°C

[Daha fazla]
Rüzgar 240º 5kt
Görünürlük >10km
Hava -
Bulutlar Few Clouds 2200ft
Scattered Clouds 14000ft
Basınç 1028
Değiştir -
Ham ETNW 281420Z 24005KT 9999 FEW022 SCT140 02/M04 Q1028 BLU+

VFR

1°C / -4°C

[Daha fazla]
Rüzgar 270º 4kt
Görünürlük >10km
Hava -
Bulutlar Few Clouds 2200ft
Scattered Clouds 15000ft
Basınç 1029
Değiştir -
Ham ETNW 281320Z 27004KT 9999 FEW022 SCT150 01/M04 Q1029 BLU+

VFR

1°C / -5°C

[Daha fazla]
Rüzgar 270º 3kt
Görünürlük >10km
Hava -
Bulutlar Few Clouds 2200ft
Scattered Clouds 15000ft
Basınç 1028
Değiştir -
Ham ETNW 281220Z 27003KT 9999 FEW022 SCT150 01/M05 Q1028 BLU+

VFR

0°C / -5°C

[Daha fazla]
Rüzgar 320º 4kt
Görünürlük >10km
Hava -
Bulutlar Scattered Clouds 2200ft
Scattered Clouds 15000ft
Basınç 1029
Değiştir -
Ham ETNW 281150Z 32004KT 9999 SCT022 SCT150 00/M05 Q1029 BLU+

MVFR

1°C / -5°C

[Daha fazla]
Rüzgar 320º 6kt
Görünürlük >10km
Hava -
Bulutlar Broken Clouds 2200ft
Scattered Clouds 10000ft
Basınç 1030
Değiştir -
Ham ETNW 281120Z 32006KT 9999 BKN022 SCT100 01/M05 Q1030 WHT

MVFR

1°C / -4°C

[Daha fazla]
Rüzgar 300º 3kt
Görünürlük >10km
Hava -
Bulutlar Broken Clouds 2200ft
Basınç 1030
Değiştir -
Ham ETNW 281020Z 30003KT 9999 BKN022 01/M04 Q1030 WHT

MVFR

0°C / -5°C

[Daha fazla]
Rüzgar 320º 6kt
Görünürlük >10km
Hava -
Bulutlar Broken Clouds 2300ft
Basınç 1030
Değiştir -
Ham ETNW 280920Z 32006KT 9999 BKN023 00/M05 Q1030 WHT

MVFR

0°C / -4°C

[Daha fazla]
Rüzgar 360º 2kt
Görünürlük >10km
Hava -
Bulutlar Broken Clouds 2300ft
Basınç 1029
Değiştir -
Ham ETNW 280820Z 36002KT 9999 BKN023 00/M04 Q1029 WHT

MVFR

0°C / -4°C

[Daha fazla]
Rüzgar 310º 2kt
Görünürlük >10km
Hava -
Bulutlar Broken Clouds 2300ft
Basınç 1029
Değiştir -
Ham ETNW 280720Z 31002KT 9999 BKN023 M00/M04 Q1029 WHT

MVFR

0°C / -4°C

[Daha fazla]
Rüzgar 330º 2kt
Görünürlük >10km
Hava -
Bulutlar Broken Clouds 2400ft
Basınç 1028
Değiştir -
Ham ETNW 280620Z 33002KT 9999 BKN024 M00/M04 Q1028 WHT

MVFR

0°C / -4°C

[Daha fazla]
Rüzgar 10º 3kt
Görünürlük >10km
Hava -
Bulutlar Broken Clouds 2400ft
Basınç 1028
Değiştir -
Ham ETNW 280520Z 01003KT 9999 BKN024 00/M04 Q1028 WHT

MVFR

0°C / -3°C

[Daha fazla]
Rüzgar 360º 2kt
Görünürlük >10km
Hava -
Bulutlar Broken Clouds 2500ft
Basınç 1028
Değiştir -
Ham ETNW 280420Z 36002KT 9999 BKN025 00/M03 Q1028 BLU

MVFR

1°C / -3°C

[Daha fazla]
Rüzgar 80º 2kt
Görünürlük >10km
Hava -
Bulutlar Broken Clouds 2500ft
Basınç 1028
Değiştir -
Ham ETNW 280320Z 08002KT 9999 BKN025 01/M03 Q1028 BLU

MVFR

1°C / -4°C

[Daha fazla]
Rüzgar 40º 4kt
Görünürlük >10km
Hava -
Bulutlar Broken Clouds 2500ft
Basınç 1028
Değiştir -
Ham ETNW 280220Z 04004KT 9999 BKN025 01/M04 Q1028 BLU

MVFR

1°C / -3°C

[Daha fazla]
Rüzgar variable 3kt
Görünürlük >10km
Hava -
Bulutlar Broken Clouds 2400ft
Basınç 1028
Değiştir -
Ham ETNW 280120Z VRB03KT 9999 BKN024 01/M03 Q1028 WHT

MVFR

1°C / -3°C

[Daha fazla]
Rüzgar 70º 4kt
Görünürlük >10km
Hava -
Bulutlar Broken Clouds 2300ft
Basınç 1028
Değiştir -
Ham ETNW 280020Z 07004KT 9999 BKN023 01/M03 Q1028 WHT

MVFR

1°C / -3°C

[Daha fazla]
Rüzgar 50º 3kt
Görünürlük >10km
Hava -
Bulutlar Broken Clouds 2300ft
Basınç 1028
Değiştir -
Ham ETNW 272320Z 05003KT 9999 BKN023 01/M03 Q1028 WHT

MVFR

1°C / -4°C

[Daha fazla]
Rüzgar 70º 6kt
Görünürlük >10km
Hava -
Bulutlar Broken Clouds 2400ft
Basınç 1028
Değiştir -
Ham ETNW 272220Z 07006KT 9999 BKN024 01/M04 Q1028 WHT

MVFR

2°C / -3°C

[Daha fazla]
Rüzgar 60º 6kt
Görünürlük >10km
Hava -
Bulutlar Broken Clouds 2500ft
Basınç 1028
Değiştir -
Ham ETNW 272120Z 06006KT 9999 BKN025 02/M03 Q1028 BLU

MVFR

2°C / -2°C

[Daha fazla]
Rüzgar 50º 5kt
Görünürlük >10km
Hava -
Bulutlar Broken Clouds 2300ft
Basınç 1028
Değiştir -
Ham ETNW 271920Z 05005KT 9999 BKN023 02/M02 Q1028 WHT

MVFR

2°C / -1°C

[Daha fazla]
Rüzgar 60º 5kt
Görünürlük >10km
Hava -
Bulutlar Broken Clouds 2000ft
Basınç 1028
Değiştir -
Ham ETNW 271820Z 06005KT 9999 BKN020 02/M01 Q1028 WHT

MVFR

2°C / -1°C

[Daha fazla]
Rüzgar 80º 5kt
Görünürlük >10km
Hava -
Bulutlar Broken Clouds 2000ft
Basınç 1028
Değiştir -
Ham ETNW 271800Z 08005KT 9999 BKN020 02/M01 Q1028 WHT FCST CNL

Bordenau (ETNW) için TAF

From till


From till Wind 260º 5kt. Visibility 10km or more. Broken Clouds 3000ft.
Temporarly from till Wind 320º 5kt. Visibility 10km or more. Broken Clouds 2000ft.
Temporarly from till Wind 240º 5kt. Visibility 5000m. Mist . Scattered Clouds 1200ft. Broken Clouds 2000ft.

Ham: TAF ETNW 281112Z 2812/2912 26005KT 9999 NSW BKN030 TEMPO 2812/2815 32005KT 9999 NSW BKN020 TEMPO 2822/2908 24005KT 5000 BR SCT012 BKN020 BY ETGL

rainNOW: Şimdi Bordenau ve çevresi için yağmur yağıyor (25km yarıçap)

0.0 mm
0.0 mm
0.0 mm
0.0 mm
0.0 mm
0.0 mm
0.0 mm
0.0 mm
0.0 mm
0.0 mm
0.0 mm
0.0 mm

Bordenau için radar ve yağış nowcast

Çise
Hafif
Orta
Ağır
Çok ağır
Dolu

Konum işaretleyicisi Bordenau üzerine yerleştirilir. Bu animasyon son saat içerisindeki yağış radarını ve 2h tahminini gösterir. Hafif yağmur veya kar yağışı radar için görünmez olabilir. Yağış şiddeti açık mavi ile koyu mor arasındaki renklerle kodlanmıştır.
Copyright 2023 Deutscher Wetterdienst / meteoblue.

Bordenau için şu anki uydu ve yağmur görüntüleri, Almanya

Konum işaretleyici Bordenau üzerine yerleştirilir. [Daha fazla]

Gerçek zamanlı uydu görüntüsü gündüz süresince görülür ışığı gece süresince kızılötesi ışınım ile birleştirir. Gece kızılötesi ışınım sıcaklık farklarını algılayabildiğinden dolayı görüntü karanlık değildir. Ancak düşük bulutları ve sisi yer sıcaklığından ayırmak zordur ve bu nedenle gece boyunca neredeyse görünmez olabilirler. Avrupa için Meteosat uydu görüntüleri gerçek zamanlı olarak her 5 dakikada bir güncellenir. GOES-16/GOES-17 (Kuzey ve Güney Amerika) ve Himawari (Asya) görüntüleri her 10 dakikada bir güncellenir.

Yağış radar ve uydulardan tahmin edilir. Uydulardan elde edilen yağış tahminleri geceleri gündüze göre daha az doğrudur. Turuncu çarpılar şimşeklerin saptandığı yerleri gösterir (Avrupa üzeri).

Copyright 2023 EUMETSAT / meteoblue. nowcast tarafından sağlanan şimşek verileri.

En başa git